Time;durP1;ratioP1;P1;durP2;ratioP2;P2;SDS_P1;SDS_P2;PMS_P1;PMS_P2;Temp;Humidity;BMP_temperature;BMP_pressure;BME280_temperature;BME280_humidity;BME280_pressure;Samples;Min_cycle;Max_cycle;Signal;HPM_P1;HPM_P2
2022/02/14 00:00:24;;;;;;;5.60;3.00;;;4.80;85.80;4.70;100148.00;;;;4957337;28;87981;-68
2022/02/14 00:02:50;;;;;;;6.07;2.80;;;4.80;85.90;4.60;100129.00;;;;4973454;28;87899;-67
2022/02/14 00:05:16;;;;;;;7.63;3.67;;;4.80;85.70;4.60;100142.00;;;;4976462;28;102205;-66
2022/02/14 00:07:42;;;;;;;5.53;3.43;;;4.70;85.40;4.60;100136.00;;;;4976000;28;88043;-65
2022/02/14 00:10:09;;;;;;;6.20;3.63;;;4.70;85.30;4.60;100135.00;;;;4965969;28;101860;-67
2022/02/14 00:12:39;;;;;;;4.43;3.13;;;4.70;85.40;4.50;100133.00;;;;4956423;28;87804;-66
2022/02/14 00:15:06;;;;;;;8.20;2.73;;;4.70;85.30;4.50;100138.00;;;;4957972;28;87254;-66
2022/02/14 00:17:31;;;;;;;3.63;3.10;;;4.60;85.40;4.50;100128.00;;;;4955560;28;102361;-68
2022/02/14 00:19:57;;;;;;;3.37;2.53;;;4.60;85.60;4.50;100128.00;;;;4956212;28;109859;-66
2022/02/14 00:22:23;;;;;;;2.97;2.07;;;4.60;85.30;4.50;100121.00;;;;4963215;28;108245;-66
2022/02/14 00:24:53;;;;;;;5.20;3.83;;;4.60;85.20;4.40;100114.00;;;;4975356;28;117889;-67
2022/02/14 00:27:21;;;;;;;2.43;2.20;;;4.60;85.20;4.40;100115.00;;;;4975801;28;88456;-66
2022/02/14 00:29:48;;;;;;;2.63;2.20;;;4.60;85.10;4.40;100126.00;;;;4979935;28;87742;-66
2022/02/14 00:32:15;;;;;;;6.50;2.57;;;4.60;85.20;4.40;100104.00;;;;4957242;28;87697;-66
2022/02/14 00:34:41;;;;;;;3.93;2.70;;;4.50;85.00;4.40;100114.00;;;;4956465;28;88969;-66
2022/02/14 00:37:07;;;;;;;4.40;2.13;;;5.30;86.00;4.30;100125.00;;;;4955906;28;92182;-66
2022/02/14 00:39:32;;;;;;;5.63;2.77;;;4.50;85.50;4.30;100114.00;;;;4976636;28;87076;-67
2022/02/14 00:41:58;;;;;;;2.70;2.43;;;4.50;85.60;4.30;100112.00;;;;4975139;28;107092;-66
2022/02/14 00:44:24;;;;;;;3.53;2.90;;;4.40;85.80;4.20;100106.00;;;;4975297;28;116751;-67
2022/02/14 00:46:50;;;;;;;6.80;3.27;;;4.50;86.10;4.20;100106.00;;;;4974480;28;118169;-66
2022/02/14 00:49:16;;;;;;;4.93;2.80;;;4.40;86.10;4.20;100098.00;;;;4974876;28;104143;-67
2022/02/14 00:51:42;;;;;;;4.17;3.17;;;4.30;86.30;4.20;100123.00;;;;4976547;28;87733;-66
2022/02/14 00:54:08;;;;;;;3.47;2.43;;;4.30;86.30;4.10;100108.00;;;;4976223;28;87990;-66
2022/02/14 00:56:34;;;;;;;3.53;2.57;;;4.30;86.40;4.10;100118.00;;;;4975026;28;88885;-67
2022/02/14 00:59:00;;;;;;;9.40;2.80;;;4.30;86.60;4.10;100114.00;;;;4975161;28;109508;-66
2022/02/14 01:01:28;;;;;;;5.90;2.67;;;4.40;86.70;4.10;100101.00;;;;4990595;28;109029;-65
2022/02/14 01:03:54;;;;;;;3.57;2.87;;;4.40;86.70;4.10;100114.00;;;;4974951;28;111263;-67
2022/02/14 01:06:20;;;;;;;12.60;3.77;;;4.20;86.70;4.00;100102.00;;;;4975759;28;102656;-66
2022/02/14 01:08:46;;;;;;;6.47;3.23;;;4.20;86.80;4.00;100098.00;;;;4973446;28;95513;-68
2022/02/14 01:11:11;;;;;;;4.17;3.03;;;4.50;87.20;3.90;100097.00;;;;4964144;28;106872;-67
2022/02/14 01:13:37;;;;;;;7.90;3.23;;;4.10;87.00;3.90;100095.00;;;;4975431;28;87879;-66
2022/02/14 01:16:04;;;;;;;3.40;3.10;;;4.10;87.00;3.90;100093.00;;;;4974888;28;116530;-66
2022/02/14 01:18:29;;;;;;;5.53;2.60;;;4.10;87.20;3.90;100087.00;;;;4973734;28;87707;-67
2022/02/14 01:20:55;;;;;;;3.47;3.07;;;4.10;87.20;3.90;100081.00;;;;4962641;28;108709;-66
2022/02/14 01:23:21;;;;;;;3.10;2.67;;;4.00;87.30;3.80;100081.00;;;;4954517;28;111573;-67
2022/02/14 01:25:46;;;;;;;4.07;2.93;;;4.00;87.40;3.80;100081.00;;;;4954312;28;117077;-66
2022/02/14 01:28:12;;;;;;;4.70;3.40;;;4.00;87.60;3.80;100074.00;;;;4954741;28;109425;-66
2022/02/14 01:30:38;;;;;;;3.90;3.07;;;4.00;87.70;3.70;100064.00;;;;4955277;28;108353;-67
2022/02/14 01:33:04;;;;;;;3.87;2.53;;;3.90;87.70;3.70;100074.00;;;;4954422;28;117809;-67
2022/02/14 01:35:30;;;;;;;5.07;2.67;;;3.90;87.80;3.70;100065.00;;;;4955533;28;88765;-67
2022/02/14 01:37:55;;;;;;;3.93;2.70;;;3.90;87.60;3.70;100061.00;;;;4954787;28;110160;-66
2022/02/14 01:40:21;;;;;;;7.70;2.77;;;3.90;88.20;3.70;100066.00;;;;4954875;28;110110;-66
2022/02/14 01:42:47;;;;;;;4.27;2.80;;;3.90;87.20;3.70;100056.00;;;;4955433;28;91922;-66
2022/02/14 01:45:13;;;;;;;7.07;3.07;;;3.80;87.20;3.70;100052.00;;;;4955337;28;88111;-66
2022/02/14 01:47:40;;;;;;;5.03;3.37;;;3.90;87.10;3.70;100058.00;;;;4954948;28;91449;-65
2022/02/14 01:50:09;;;;;;;5.13;3.17;;;3.90;87.00;3.70;100035.00;;;;4955145;28;89138;-66
2022/02/14 01:52:36;;;;;;;4.53;2.33;;;3.90;87.00;3.70;100029.00;;;;4955399;28;88302;-67
2022/02/14 01:55:04;;;;;;;4.40;3.17;;;3.80;87.10;3.70;100038.00;;;;4972241;28;103798;-65
2022/02/14 01:57:30;;;;;;;3.57;2.93;;;3.90;87.20;3.60;100029.00;;;;4975353;28;87798;-67
2022/02/14 01:59:59;;;;;;;5.10;3.20;;;3.80;87.00;3.60;100031.00;;;;4973288;28;88747;-67
2022/02/14 02:02:25;;;;;;;10.53;3.43;;;3.80;87.30;3.60;100020.00;;;;4974721;28;88696;-66
2022/02/14 02:04:51;;;;;;;3.27;2.93;;;3.70;87.40;3.60;100018.00;;;;4956625;28;88315;-66
2022/02/14 02:07:17;;;;;;;4.43;3.17;;;3.80;87.50;3.50;100033.00;;;;4955036;28;98372;-66
2022/02/14 02:09:44;;;;;;;6.00;3.63;;;3.80;87.70;3.50;100015.00;;;;4954620;28;97794;-67
2022/02/14 02:12:24;;;;;;;4.03;2.90;;;3.60;88.00;3.40;100031.00;;;;4955001;28;94999;-67
2022/02/14 02:14:59;;;;;;;5.17;2.97;;;3.50;88.10;3.40;100016.00;;;;4954914;28;87730;-66
2022/02/14 02:17:33;;;;;;;4.97;2.57;;;3.60;88.40;3.40;100014.00;;;;4972332;28;87427;-67
2022/02/14 02:20:06;;;;;;;8.03;2.97;;;4.40;89.00;3.30;100009.00;;;;4956815;28;87788;-66
2022/02/14 02:22:33;;;;;;;2.37;1.90;;;3.90;89.00;3.30;100009.00;;;;4954572;28;89623;-67
2022/02/14 02:24:59;;;;;;;7.50;3.53;;;3.50;88.70;3.30;100005.00;;;;4954138;28;96769;-66
2022/02/14 02:27:27;;;;;;;4.43;3.23;;;3.50;88.90;3.30;100006.00;;;;4956352;28;98997;-66
2022/02/14 02:30:03;;;;;;;4.33;2.77;;;4.10;89.30;3.30;100005.00;;;;4975562;28;87635;-67
2022/02/14 02:32:33;;;;;;;7.23;3.40;;;3.50;88.80;3.30;100002.00;;;;4977962;28;95905;-67
2022/02/14 02:35:02;;;;;;;3.60;3.10;;;3.40;88.90;3.30;99986.00;;;;4978674;28;87782;-66
2022/02/14 02:37:29;;;;;;;5.43;2.87;;;3.50;89.10;3.20;99989.00;;;;4975704;28;87770;-66
2022/02/14 02:39:56;;;;;;;3.13;2.83;;;3.50;89.20;3.20;99991.00;;;;4958610;28;87926;-66
2022/02/14 02:42:23;;;;;;;4.53;3.07;;;3.40;89.40;3.20;99993.00;;;;4958986;28;87917;-66
2022/02/14 02:44:51;;;;;;;4.40;3.03;;;3.10;89.40;3.20;99983.00;;;;4976386;28;88276;-68
2022/02/14 02:47:21;;;;;;;4.50;3.07;;;3.40;89.80;3.20;99974.00;;;;4993221;27;87684;-67
2022/02/14 02:49:48;;;;;;;4.87;2.60;;;3.30;89.90;3.10;99967.00;;;;4977488;28;88843;-66
2022/02/14 02:52:16;;;;;;;4.50;3.07;;;3.70;90.10;3.10;99970.00;;;;4978294;28;88428;-66
2022/02/14 02:54:42;;;;;;;5.07;3.23;;;3.30;90.00;3.10;99970.00;;;;4977784;28;87678;-68
2022/02/14 02:57:08;;;;;;;3.70;3.03;;;3.30;90.20;3.00;99966.00;;;;4978248;28;90867;-68
2022/02/14 02:59:35;;;;;;;5.40;3.63;;;3.70;90.40;3.00;99968.00;;;;4976996;28;92883;-67
2022/02/14 03:02:06;;;;;;;4.87;3.17;;;3.20;90.20;3.00;99975.00;;;;4976999;28;88120;-67
2022/02/14 03:04:33;;;;;;;4.03;2.90;;;3.30;90.30;3.00;99964.00;;;;4977754;28;88501;-66
2022/02/14 03:07:00;;;;;;;4.00;2.90;;;3.80;90.70;3.00;99962.00;;;;4978159;28;98122;-67
2022/02/14 03:09:26;;;;;;;4.90;2.80;;;3.30;90.60;2.90;99971.00;;;;4977816;28;87877;-66
2022/02/14 03:11:53;;;;;;;4.37;3.47;;;3.20;90.70;2.90;99959.00;;;;4963268;28;88275;-67
2022/02/14 03:14:18;;;;;;;2.77;2.47;;;3.50;90.90;2.90;99954.00;;;;4956907;28;88649;-66
2022/02/14 03:16:44;;;;;;;3.90;3.17;;;3.10;90.90;2.90;99953.00;;;;4969718;28;98176;-68
2022/02/14 03:19:11;;;;;;;7.57;4.40;;;3.10;90.90;2.80;99952.00;;;;4977261;28;96325;-67
2022/02/14 03:21:38;;;;;;;6.50;2.83;;;3.40;91.10;2.80;99948.00;;;;4977264;28;88777;-67
2022/02/14 03:24:04;;;;;;;5.23;3.20;;;3.10;91.10;2.80;99953.00;;;;4977725;28;87813;-67
2022/02/14 03:26:30;;;;;;;6.07;3.13;;;3.00;91.10;2.80;99955.00;;;;4969968;28;87442;-67
2022/02/14 03:28:57;;;;;;;6.63;3.40;;;3.40;91.20;2.80;99952.00;;;;4971351;28;101324;-67
2022/02/14 03:31:24;;;;;;;3.80;2.57;;;3.00;91.20;2.80;99943.00;;;;4971304;28;87433;-66
2022/02/14 03:33:51;;;;;;;4.47;2.73;;;3.00;91.30;2.70;99955.00;;;;4956555;28;111288;-67
2022/02/14 03:36:19;;;;;;;5.50;3.43;;;2.90;91.40;2.70;99925.00;;;;4958217;28;87787;-67
2022/02/14 03:38:46;;;;;;;6.73;3.00;;;2.90;91.40;2.70;99935.00;;;;4963743;28;88733;-67
2022/02/14 03:41:12;;;;;;;3.13;2.17;;;3.50;91.60;2.70;99933.00;;;;4976892;28;88249;-66
2022/02/14 03:43:38;;;;;;;10.03;3.10;;;3.30;91.70;2.60;99931.00;;;;4976942;28;87812;-67
2022/02/14 03:46:04;;;;;;;3.83;2.93;;;3.40;91.80;2.60;99930.00;;;;4973095;28;110077;-67
2022/02/14 03:48:30;;;;;;;4.30;3.03;;;2.80;91.70;2.60;99933.00;;;;4957746;28;88087;-67
2022/02/14 03:50:56;;;;;;;3.00;2.63;;;2.80;91.90;2.60;99920.00;;;;4954959;28;89458;-66
2022/02/14 03:53:23;;;;;;;8.43;2.83;;;3.30;92.00;2.50;99923.00;;;;4969813;28;88316;-66
2022/02/14 03:55:50;;;;;;;4.83;3.20;;;3.10;91.90;2.50;99916.00;;;;4958202;28;86999;-68
2022/02/14 03:58:16;;;;;;;5.90;3.23;;;2.90;92.00;2.50;99919.00;;;;4972008;28;87774;-67
2022/02/14 04:00:42;;;;;;;5.83;2.97;;;2.80;91.90;2.50;99921.00;;;;4957015;28;88064;-67
2022/02/14 04:03:08;;;;;;;6.83;2.47;;;3.30;92.10;2.50;99907.00;;;;4971086;28;88784;-68
2022/02/14 04:05:34;;;;;;;3.67;2.73;;;3.10;92.10;2.50;99905.00;;;;4977016;28;87686;-66
2022/02/14 04:08:00;;;;;;;4.47;2.97;;;3.60;92.20;2.50;99903.00;;;;4972197;28;88169;-66
2022/02/14 04:10:27;;;;;;;5.03;3.17;;;3.10;92.10;2.50;99909.00;;;;4956136;28;117886;-67
2022/02/14 04:12:54;;;;;;;6.60;3.30;;;2.70;92.00;2.50;99900.00;;;;4956830;28;88992;-66
2022/02/14 04:15:20;;;;;;;5.67;3.03;;;3.10;92.10;2.40;99886.00;;;;4957821;28;87796;-66
2022/02/14 04:17:46;;;;;;;6.73;3.63;;;2.60;92.10;2.40;99889.00;;;;4957067;28;87569;-66
2022/02/14 04:20:12;;;;;;;7.03;3.67;;;2.70;92.10;2.40;99898.00;;;;4956217;28;106328;-66
2022/02/14 04:22:40;;;;;;;9.87;3.20;;;3.40;92.40;2.40;99897.00;;;;4956628;28;88422;-67
2022/02/14 04:25:08;;;;;;;4.83;2.63;;;2.90;92.30;2.40;99886.00;;;;4956711;28;87711;-67
2022/02/14 04:27:34;;;;;;;5.27;3.27;;;2.60;92.10;2.40;99877.00;;;;4956184;28;96241;-65
2022/02/14 04:29:59;;;;;;;4.23;2.63;;;2.60;92.10;2.40;99883.00;;;;4954938;28;118013;-66
2022/02/14 04:32:25;;;;;;;5.83;3.23;;;3.10;92.10;2.40;99878.00;;;;4956421;28;88198;-66
2022/02/14 04:34:51;;;;;;;3.67;2.60;;;2.70;92.00;2.40;99878.00;;;;4968588;28;108887;-65
2022/02/14 04:37:17;;;;;;;3.80;2.87;;;3.30;92.20;2.40;99875.00;;;;4969744;28;87571;-65
2022/02/14 04:39:43;;;;;;;4.43;2.87;;;3.50;92.30;2.40;99869.00;;;;4965336;28;88972;-66
2022/02/14 04:42:09;;;;;;;6.23;2.90;;;3.30;92.30;2.30;99866.00;;;;4970967;28;87700;-65
2022/02/14 04:44:35;;;;;;;3.00;2.47;;;2.60;92.10;2.30;99869.00;;;;4957362;28;87068;-66
2022/02/14 04:47:01;;;;;;;4.23;3.13;;;2.50;92.30;2.30;99862.00;;;;4956317;28;87665;-66
2022/02/14 04:49:27;;;;;;;6.80;2.93;;;2.90;92.30;2.30;99845.00;;;;4955241;28;102318;-66
2022/02/14 04:51:52;;;;;;;3.10;2.80;;;3.30;92.50;2.30;99844.00;;;;4955004;28;117671;-67
2022/02/14 04:54:18;;;;;;;5.73;2.93;;;3.30;92.40;2.30;99834.00;;;;4970158;28;109948;-66
2022/02/14 04:56:44;;;;;;;6.87;3.03;;;2.50;92.20;2.30;99839.00;;;;4957713;28;108961;-67
2022/02/14 04:59:10;;;;;;;3.27;2.83;;;2.90;92.30;2.30;99834.00;;;;4974630;28;116932;-67
2022/02/14 05:01:36;;;;;;;4.13;2.63;;;2.40;92.20;2.30;99838.00;;;;4962457;28;88785;-67
2022/02/14 05:04:02;;;;;;;2.70;2.17;;;2.50;92.10;2.30;99854.00;;;;4976247;28;87631;-66
2022/02/14 05:06:27;;;;;;;4.07;3.23;;;2.60;92.10;2.30;99839.00;;;;4980964;28;106168;-66
2022/02/14 05:08:53;;;;;;;5.33;2.77;;;3.00;92.20;2.30;99837.00;;;;4974986;28;117100;-66
2022/02/14 05:11:19;;;;;;;5.57;2.87;;;2.50;91.90;2.40;99836.00;;;;4975171;28;117116;-67
2022/02/14 05:13:46;;;;;;;7.60;3.33;;;2.60;91.90;2.40;99848.00;;;;4975463;28;87597;-66
2022/02/14 05:16:11;;;;;;;4.17;2.83;;;2.50;91.90;2.40;99845.00;;;;4975848;28;88710;-66
2022/02/14 05:18:37;;;;;;;4.00;2.90;;;3.20;92.10;2.30;99818.00;;;;4974207;28;117611;-66
2022/02/14 05:21:04;;;;;;;4.90;2.20;;;2.60;91.90;2.30;99831.00;;;;4975366;28;102358;-66
2022/02/14 05:23:30;;;;;;;3.70;2.47;;;3.30;92.10;2.30;99833.00;;;;4974335;28;110766;-66
2022/02/14 05:25:55;;;;;;;4.70;2.90;;;2.50;91.90;2.30;99823.00;;;;4973012;28;94883;-66
2022/02/14 05:28:21;;;;;;;3.53;2.17;;;2.50;91.90;2.30;99831.00;;;;4975508;28;88609;-66
2022/02/14 05:30:47;;;;;;;5.63;2.80;;;3.10;92.10;2.30;99823.00;;;;4955413;28;109487;-66
2022/02/14 05:33:13;;;;;;;5.57;3.40;;;2.50;92.10;2.30;99825.00;;;;4969609;28;86995;-66
2022/02/14 05:35:40;;;;;;;4.23;3.10;;;2.90;92.10;2.30;99827.00;;;;4973931;28;87811;-66
2022/02/14 05:38:08;;;;;;;4.93;2.70;;;2.90;92.10;2.30;99823.00;;;;4982771;28;88155;-66
2022/02/14 05:40:33;;;;;;;5.47;3.70;;;2.40;92.10;2.30;99831.00;;;;4972199;28;89543;-67
2022/02/14 05:42:59;;;;;;;4.03;2.70;;;2.50;92.00;2.30;99821.00;;;;4969266;28;94088;-66
2022/02/14 05:45:25;;;;;;;3.80;2.60;;;2.60;92.00;2.30;99810.00;;;;4973182;28;87790;-65
2022/02/14 05:47:50;;;;;;;4.93;2.83;;;3.30;92.30;2.30;99827.00;;;;4965276;28;117924;-67
2022/02/14 05:50:16;;;;;;;4.70;2.50;;;3.30;92.40;2.20;99826.00;;;;4971270;28;117940;-66
2022/02/14 05:52:44;;;;;;;4.50;3.40;;;2.50;92.20;2.20;99825.00;;;;4969817;28;87912;-65
2022/02/14 05:55:10;;;;;;;6.17;3.03;;;3.00;92.40;2.20;99832.00;;;;4966254;28;88006;-66
2022/02/14 05:57:36;;;;;;;3.30;2.43;;;2.40;92.30;2.20;99839.00;;;;4968766;28;109347;-65
2022/02/14 06:00:05;;;;;;;6.87;3.50;;;3.40;92.60;2.20;99831.00;;;;4972578;28;88165;-67
2022/02/14 06:02:31;;;;;;;6.27;3.37;;;2.40;92.40;2.20;99826.00;;;;4971446;28;90954;-67
2022/02/14 06:04:56;;;;;;;5.07;2.90;;;2.40;92.40;2.20;99840.00;;;;4972725;28;95373;-66
2022/02/14 06:07:22;;;;;;;4.67;3.37;;;3.00;92.50;2.20;99833.00;;;;4967388;28;100354;-66
2022/02/14 06:09:48;;;;;;;7.20;3.57;;;2.90;92.60;2.20;99830.00;;;;4976875;28;89868;-67
2022/02/14 06:12:13;;;;;;;3.20;2.67;;;2.90;92.60;2.20;99832.00;;;;4978475;28;110526;-67
2022/02/14 06:14:39;;;;;;;3.37;2.93;;;2.40;92.40;2.20;99827.00;;;;4978027;28;109116;-66
2022/02/14 06:17:05;;;;;;;4.07;2.63;;;2.90;92.60;2.30;99831.00;;;;4972076;28;117431;-66
2022/02/14 06:19:30;;;;;;;4.00;3.27;;;2.50;92.50;2.30;99833.00;;;;4957423;28;117714;-67
2022/02/14 06:21:56;;;;;;;6.10;3.10;;;3.40;93.10;2.30;99834.00;;;;4959564;28;110629;-66
2022/02/14 06:24:22;;;;;;;5.00;3.03;;;2.80;92.60;2.30;99846.00;;;;4960745;28;87673;-66
2022/02/14 06:26:47;;;;;;;3.83;2.70;;;2.40;92.40;2.20;99832.00;;;;4973123;28;117914;-66
2022/02/14 06:29:13;;;;;;;4.53;2.80;;;2.70;92.60;2.20;99831.00;;;;4974759;28;100657;-67
2022/02/14 06:31:39;;;;;;;7.23;3.07;;;2.40;92.50;2.20;99835.00;;;;4978243;28;90407;-66
2022/02/14 06:34:04;;;;;;;5.17;3.53;;;2.50;92.60;2.20;99833.00;;;;4964584;28;109548;-66
2022/02/14 06:36:31;;;;;;;4.17;2.80;;;2.40;92.60;2.20;99838.00;;;;4959849;28;87524;-66
2022/02/14 06:38:59;;;;;;;5.63;3.17;;;2.70;92.60;2.30;99836.00;;;;4970669;28;88111;-67
2022/02/14 06:41:26;;;;;;;3.93;2.13;;;3.00;92.80;2.30;99829.00;;;;4958634;28;87964;-67
2022/02/14 06:43:54;;;;;;;3.47;2.90;;;2.50;92.60;2.30;99840.00;;;;4976224;28;88088;-67
2022/02/14 06:46:20;;;;;;;5.13;3.30;;;3.00;92.80;2.30;99841.00;;;;4978106;28;105922;-68
2022/02/14 06:48:47;;;;;;;4.43;3.13;;;3.20;92.80;2.30;99827.00;;;;4969814;28;88002;-66
2022/02/14 06:51:12;;;;;;;5.40;3.63;;;2.70;92.60;2.40;99832.00;;;;4978660;28;87799;-66
2022/02/14 06:53:38;;;;;;;4.73;3.00;;;3.50;92.70;2.40;99842.00;;;;4974685;28;88463;-67
2022/02/14 06:56:06;;;;;;;3.07;2.63;;;2.60;92.40;2.40;99839.00;;;;4977934;28;100951;-66
2022/02/14 06:58:36;;;;;;;6.33;2.90;;;2.50;92.30;2.50;99846.00;;;;4961130;28;87759;-67
2022/02/14 07:01:03;;;;;;;4.57;2.60;;;2.70;92.20;2.50;99843.00;;;;4972320;28;87715;-67
2022/02/14 07:03:29;;;;;;;3.13;2.73;;;2.70;92.10;2.60;99840.00;;;;4977354;28;95680;-65
2022/02/14 07:05:56;;;;;;;2.53;2.13;;;2.80;91.70;2.70;99832.00;;;;4977279;28;99935;-65
2022/02/14 07:08:22;;;;;;;6.53;2.57;;;2.80;91.60;2.80;99829.00;;;;4976571;28;101299;-66
2022/02/14 07:10:48;;;;;;;7.40;3.30;;;2.90;91.40;3.00;99829.00;;;;4978317;28;86985;-66
2022/02/14 07:13:13;;;;;;;9.13;3.70;;;3.00;90.90;3.20;99836.00;;;;4977198;28;87712;-66
2022/02/14 07:15:39;;;;;;;6.33;3.10;;;3.30;90.70;3.30;99832.00;;;;4992319;28;88234;-66
2022/02/14 07:18:11;;;;;;;5.80;2.70;;;3.50;90.30;3.50;99825.00;;;;4974521;28;116472;-66
2022/02/14 07:20:38;;;;;;;4.43;2.80;;;3.60;89.30;3.70;99831.00;;;;4982965;28;87697;-66
2022/02/14 07:23:05;;;;;;;7.37;2.73;;;3.70;87.90;3.80;99821.00;;;;4957571;28;95911;-66
2022/02/14 07:25:31;;;;;;;4.00;3.13;;;3.90;87.30;4.00;99809.00;;;;4958107;28;87964;-65
2022/02/14 07:27:56;;;;;;;3.33;2.50;;;4.10;86.00;4.10;99813.00;;;;4957278;28;94141;-65
2022/02/14 07:30:22;;;;;;;3.67;2.53;;;4.30;84.30;4.30;99811.00;;;;4956791;28;109840;-66
2022/02/14 07:32:48;;;;;;;4.77;2.63;;;4.30;83.00;4.40;99829.00;;;;4958157;28;87809;-66
2022/02/14 07:35:14;;;;;;;3.20;1.93;;;4.50;81.60;4.50;99821.00;;;;4956759;28;116665;-66
2022/02/14 07:37:42;;;;;;;3.90;2.60;;;4.60;81.80;4.60;99825.00;;;;4967212;28;87888;-65
2022/02/14 07:40:09;;;;;;;5.00;3.60;;;4.50;80.20;4.80;99825.00;;;;4975106;28;87947;-66
2022/02/14 07:42:35;;;;;;;5.50;3.30;;;4.90;80.20;4.90;99813.00;;;;4977287;28;88548;-68
2022/02/14 07:45:01;;;;;;;6.40;3.67;;;5.00;79.20;5.10;99813.00;;;;4976308;28;116428;-66
2022/02/14 07:47:27;;;;;;;5.87;4.60;;;5.20;77.70;5.20;99821.00;;;;4973007;28;88112;-67
2022/02/14 07:49:53;;;;;;;5.00;2.90;;;5.30;76.30;5.30;99818.00;;;;4967585;28;110795;-66
2022/02/14 07:52:19;;;;;;;4.83;2.57;;;5.40;76.00;5.50;99813.00;;;;4960516;28;87838;-67
2022/02/14 07:54:45;;;;;;;6.00;3.27;;;5.60;75.30;5.60;99826.00;;;;4955561;28;117576;-66
2022/02/14 07:57:11;;;;;;;3.87;2.37;;;5.70;73.40;5.70;99808.00;;;;4960366;28;113190;-66
2022/02/14 07:59:36;;;;;;;2.83;2.20;;;5.70;72.00;5.80;99822.00;;;;4958644;28;96812;-67
2022/02/14 08:02:02;;;;;;;3.67;3.20;;;5.90;71.70;5.90;99825.00;;;;4958552;28;87760;-66
2022/02/14 08:04:28;;;;;;;3.80;2.77;;;5.90;71.00;6.00;99825.00;;;;4956268;28;100575;-66
2022/02/14 08:06:54;;;;;;;5.80;3.40;;;6.00;70.80;6.10;99802.00;;;;4972411;28;116543;-67
2022/02/14 08:09:19;;;;;;;6.03;3.20;;;6.10;69.70;6.10;99819.00;;;;4976161;28;91054;-67
2022/02/14 08:11:45;;;;;;;5.53;3.10;;;6.20;69.40;6.30;99810.00;;;;4976273;28;108469;-66
2022/02/14 08:14:11;;;;;;;6.67;3.63;;;6.30;68.20;6.30;99809.00;;;;4956666;28;107919;-66
2022/02/14 08:16:37;;;;;;;6.10;3.93;;;6.40;68.60;6.50;99813.00;;;;4956912;28;87770;-66
2022/02/14 08:19:03;;;;;;;5.57;3.50;;;6.60;68.50;6.60;99819.00;;;;4969892;28;111961;-66
2022/02/14 08:21:29;;;;;;;4.73;3.20;;;6.60;67.80;6.70;99818.00;;;;4976153;28;109768;-66
2022/02/14 08:23:55;;;;;;;3.40;2.40;;;6.80;66.50;6.80;99807.00;;;;4974924;28;88144;-66
2022/02/14 08:26:22;;;;;;;4.30;3.67;;;6.80;65.50;6.90;99808.00;;;;4963644;28;117852;-66
2022/02/14 08:28:47;;;;;;;7.03;3.30;;;7.00;67.10;7.10;99812.00;;;;4957312;28;87959;-66
2022/02/14 08:31:13;;;;;;;5.60;3.97;;;7.20;66.00;7.30;99812.00;;;;4955606;28;107959;-67
2022/02/14 08:33:39;;;;;;;6.30;3.43;;;7.30;65.30;7.40;99797.00;;;;4956745;28;87762;-66
2022/02/14 08:36:05;;;;;;;3.93;3.03;;;7.40;65.70;7.60;99793.00;;;;4956197;28;116327;-65
2022/02/14 08:38:34;;;;;;;5.23;3.73;;;7.50;62.90;7.70;99802.00;;;;4956008;28;109259;-66
2022/02/14 08:41:01;;;;;;;6.20;3.60;;;7.70;63.20;7.80;99797.00;;;;4975991;28;87753;-65
2022/02/14 08:43:27;;;;;;;9.03;3.43;;;8.20;63.30;7.90;99794.00;;;;4975956;28;95946;-66
2022/02/14 08:45:53;;;;;;;3.93;2.77;;;7.90;61.60;8.10;99796.00;;;;4974818;28;117085;-66
2022/02/14 08:48:19;;;;;;;4.37;2.57;;;8.10;60.80;8.10;99796.00;;;;4976427;28;99404;-66
2022/02/14 08:50:44;;;;;;;3.50;2.33;;;8.20;61.00;8.30;99799.00;;;;4975626;28;87933;-67
2022/02/14 08:53:11;;;;;;;5.00;2.33;;;8.30;60.70;8.50;99797.00;;;;4966098;28;87875;-67
2022/02/14 08:55:37;;;;;;;5.97;2.60;;;8.50;59.80;8.60;99800.00;;;;4972480;28;88812;-66
2022/02/14 08:58:03;;;;;;;3.43;1.77;;;8.60;58.80;8.60;99793.00;;;;4976074;28;89190;-65
2022/02/14 09:00:29;;;;;;;5.47;3.13;;;8.70;58.10;8.70;99787.00;;;;4975772;28;94905;-65
2022/02/14 09:02:56;;;;;;;4.43;2.17;;;8.70;57.90;8.80;99787.00;;;;4975602;28;88957;-67
2022/02/14 09:05:23;;;;;;;4.97;2.50;;;8.80;56.90;8.80;99787.00;;;;4975598;28;88730;-66
2022/02/14 09:07:49;;;;;;;3.23;2.40;;;8.80;56.60;8.80;99790.00;;;;4976377;28;87836;-65
2022/02/14 09:10:16;;;;;;;6.80;3.40;;;8.80;56.50;8.80;99763.00;;;;4975043;28;87620;-66
2022/02/14 09:12:43;;;;;;;4.40;2.80;;;9.00;56.70;8.90;99771.00;;;;4976280;28;87612;-65
2022/02/14 09:15:09;;;;;;;2.60;1.90;;;8.90;56.70;9.00;99765.00;;;;4966467;28;87803;-66
2022/02/14 09:17:35;;;;;;;5.27;2.83;;;9.10;56.30;9.20;99765.00;;;;4954792;28;108530;-66
2022/02/14 09:20:00;;;;;;;4.23;2.13;;;9.10;56.00;9.30;99767.00;;;;4955147;28;88700;-66
2022/02/14 09:22:26;;;;;;;5.27;2.43;;;9.30;55.50;9.30;99762.00;;;;4956337;28;88207;-66
2022/02/14 09:24:55;;;;;;;5.63;2.83;;;9.40;54.80;9.30;99762.00;;;;4960458;28;118184;-66
2022/02/14 09:27:20;;;;;;;3.03;2.50;;;9.40;54.40;9.40;99742.00;;;;4975701;28;87645;-66
2022/02/14 09:29:46;;;;;;;3.23;2.30;;;9.40;54.20;9.30;99741.00;;;;4969763;28;108531;-65
2022/02/14 09:32:12;;;;;;;3.43;2.37;;;9.40;54.30;9.50;99743.00;;;;4974401;28;116611;-65
2022/02/14 09:34:38;;;;;;;4.67;2.43;;;9.40;54.60;9.70;99742.00;;;;4975566;28;87964;-66
2022/02/14 09:37:04;;;;;;;4.37;2.73;;;9.60;54.70;9.90;99752.00;;;;4971564;28;87285;-65
2022/02/14 09:39:30;;;;;;;2.47;2.27;;;9.70;54.40;10.00;99759.00;;;;4954953;28;87864;-65
2022/02/14 09:42:01;;;;;;;2.97;2.43;;;9.90;53.70;10.10;99763.00;;;;4968327;28;88290;-65
2022/02/14 09:44:27;;;;;;;2.97;2.30;;;10.00;53.80;10.20;99761.00;;;;4974386;28;88562;-66
2022/02/14 09:46:54;;;;;;;4.10;2.70;;;10.20;54.10;10.40;99758.00;;;;4975394;28;90702;-65
2022/02/14 09:49:21;;;;;;;5.00;3.00;;;10.30;52.60;10.40;99768.00;;;;4975174;28;87797;-66
2022/02/14 09:51:49;;;;;;;2.50;2.13;;;10.40;52.10;10.30;99759.00;;;;4967948;28;103097;-66
2022/02/14 09:54:15;;;;;;;3.53;2.50;;;10.40;51.60;10.30;99764.00;;;;4959012;28;88053;-65
2022/02/14 09:56:41;;;;;;;8.93;2.77;;;10.30;51.80;10.30;99752.00;;;;4965234;28;111535;-65
2022/02/14 09:59:07;;;;;;;3.30;2.67;;;10.30;51.90;10.40;99765.00;;;;4971859;28;87765;-67
2022/02/14 10:01:33;;;;;;;3.07;2.57;;;10.40;52.10;10.50;99779.00;;;;4976036;28;87252;-67
2022/02/14 10:04:00;;;;;;;5.93;3.00;;;10.50;51.00;10.50;99769.00;;;;4974780;28;87944;-67
2022/02/14 10:06:33;;;;;;;7.13;2.97;;;10.50;50.80;10.50;99768.00;;;;4975268;28;87664;-67
2022/02/14 10:09:27;;;;;;;3.03;2.63;;;10.40;51.10;10.50;99768.00;;;;4968671;28;88501;-67
2022/02/14 10:12:07;;;;;;;4.50;2.73;;;10.50;51.30;10.60;99768.00;;;;4969408;28;89964;-66
2022/02/14 10:14:33;;;;;;;6.23;2.90;;;10.60;51.30;10.80;99786.00;;;;4969783;28;87786;-66
2022/02/14 10:17:08;;;;;;;4.83;3.10;;;10.70;51.20;11.00;99776.00;;;;4955278;28;87768;-67
2022/02/14 10:19:45;;;;;;;5.10;2.20;;;10.90;51.30;11.20;99771.00;;;;4962106;28;87522;-66
2022/02/14 10:22:12;;;;;;;2.23;1.87;;;11.10;51.20;11.40;99758.00;;;;4974661;28;87689;-67
2022/02/14 10:24:43;;;;;;;6.47;2.33;;;11.30;50.60;11.40;99768.00;;;;4974475;28;87918;-67
2022/02/14 10:27:11;;;;;;;3.93;2.60;;;11.40;50.10;11.50;99772.00;;;;4975849;28;86906;-66
2022/02/14 10:29:37;;;;;;;2.63;2.13;;;11.40;49.90;11.60;99770.00;;;;4975032;28;87851;-66
2022/02/14 10:32:17;;;;;;;5.67;2.80;;;11.50;49.60;11.60;99765.00;;;;4974167;28;107527;-67
2022/02/14 10:34:48;;;;;;;3.27;2.40;;;11.60;48.70;11.70;99772.00;;;;4956780;28;89367;-67
2022/02/14 10:37:17;;;;;;;3.40;2.40;;;11.60;48.50;11.70;99774.00;;;;4961811;28;87924;-66
2022/02/14 10:39:46;;;;;;;4.37;2.53;;;11.60;48.10;11.70;99762.00;;;;4969205;28;87765;-66
2022/02/14 10:42:19;;;;;;;2.50;2.17;;;11.60;48.30;11.80;99767.00;;;;4954853;28;89128;-66
2022/02/14 10:47:36;;;;;;;5.03;2.50;;;11.90;48.70;12.00;99761.00;;;;4960859;28;87745;-67
2022/02/14 10:50:10;;;;;;;2.33;2.13;;;11.90;47.50;12.00;99766.00;;;;4974448;28;87728;-66
2022/02/14 10:52:46;;;;;;;4.10;2.27;;;11.90;47.20;12.00;99760.00;;;;4977746;28;87186;-66
2022/02/14 10:55:42;;;;;;;2.63;2.03;;;11.90;47.60;11.80;99761.00;;;;4978125;28;88036;-66
2022/02/14 10:58:08;;;;;;;4.43;2.73;;;12.50;47.10;11.90;99755.00;;;;4958498;28;87871;-65
2022/02/14 11:00:38;;;;;;;3.10;2.57;;;11.90;47.70;11.90;99757.00;;;;4956281;28;107197;-67
2022/02/14 11:03:11;;;;;;;4.73;2.80;;;11.90;47.00;12.10;99765.00;;;;4966739;28;88972;-66